Time;durP1;ratioP1;P1;durP2;ratioP2;P2;SDS_P1;SDS_P2;PMS_P1;PMS_P2;Temp;Humidity;BMP_temperature;BMP_pressure;BME280_temperature;BME280_humidity;BME280_pressure;Samples;Min_cycle;Max_cycle;Signal;HPM_P1;HPM_P2
2021/03/04 00:00:28;;;;;;;78.10;57.97;;;8.50;1.00;;;;;;4945605;28;20242;-88
2021/03/04 00:02:54;;;;;;;81.97;59.97;;;8.60;1.00;;;;;;4948390;28;20229;-89
2021/03/04 00:05:20;;;;;;;71.13;55.70;;;8.50;1.00;;;;;;4950294;28;20252;-88
2021/03/04 00:07:47;;;;;;;85.68;60.58;;;8.50;1.00;;;;;;4971624;28;20221;-88
2021/03/04 00:10:15;;;;;;;85.65;60.35;;;8.40;1.00;;;;;;4944361;28;20233;-87
2021/03/04 00:12:42;;;;;;;81.78;60.28;;;8.40;1.00;;;;;;4972728;28;20405;-87
2021/03/04 00:15:12;;;;;;;80.15;60.30;;;8.40;1.00;;;;;;4969625;28;20243;-88
2021/03/04 00:17:39;;;;;;;86.38;62.22;;;8.40;1.00;;;;;;4964341;28;20307;-89
2021/03/04 00:20:07;;;;;;;84.40;64.78;;;8.30;1.00;;;;;;4965400;28;20284;-87
2021/03/04 00:22:33;;;;;;;87.10;62.05;;;8.30;1.00;;;;;;4984967;28;20220;-86
2021/03/04 00:25:00;;;;;;;89.90;62.88;;;8.30;1.00;;;;;;4954095;28;20228;-88
2021/03/04 00:27:26;;;;;;;89.43;62.88;;;8.30;1.00;;;;;;4958096;28;20228;-87
2021/03/04 00:29:52;;;;;;;80.55;62.97;;;8.20;1.00;;;;;;4951540;28;20323;-86
2021/03/04 00:32:20;;;;;;;86.93;64.03;;;8.20;1.00;;;;;;4957109;28;20228;-86
2021/03/04 00:34:46;;;;;;;95.45;65.72;;;8.10;1.00;;;;;;4948526;28;20706;-86
2021/03/04 00:37:12;;;;;;;92.40;64.28;;;8.10;1.00;;;;;;4975220;28;20220;-86
2021/03/04 00:39:39;;;;;;;85.40;67.55;;;8.10;1.00;;;;;;4967184;28;20237;-88
2021/03/04 00:42:06;;;;;;;91.35;67.18;;;8.10;1.00;;;;;;4956341;28;20308;-87
2021/03/04 00:44:32;;;;;;;87.57;67.13;;;8.10;1.00;;;;;;4969499;28;20224;-86
2021/03/04 00:46:58;;;;;;;87.50;64.65;;;8.00;1.00;;;;;;4961508;28;20225;-88
2021/03/04 00:49:26;;;;;;;88.50;68.15;;;8.00;1.00;;;;;;4973174;28;20271;-88
2021/03/04 00:51:55;;;;;;;91.82;67.43;;;7.90;1.00;;;;;;4964308;28;20988;-86
2021/03/04 00:54:23;;;;;;;88.22;67.38;;;7.90;1.00;;;;;;4955983;28;20248;-87
2021/03/04 00:56:50;;;;;;;91.90;69.50;;;7.90;1.00;;;;;;4951745;28;20232;-86
2021/03/04 00:59:16;;;;;;;96.50;72.53;;;7.90;1.00;;;;;;4972452;28;20216;-86
2021/03/04 01:01:42;;;;;;;96.03;69.32;;;7.80;1.00;;;;;;4964591;28;20229;-86
2021/03/04 01:04:09;;;;;;;94.78;69.60;;;7.80;1.00;;;;;;4973107;28;20221;-87
2021/03/04 01:06:37;;;;;;;90.30;70.03;;;7.80;1.00;;;;;;4958427;28;20231;-87
2021/03/04 01:09:05;;;;;;;99.13;73.35;;;7.70;1.00;;;;;;4968417;28;20236;-84
2021/03/04 01:11:31;;;;;;;97.45;68.47;;;7.70;1.00;;;;;;4957970;28;20257;-85
2021/03/04 01:13:58;;;;;;;89.30;67.53;;;7.60;1.00;;;;;;4971458;28;20327;-89
2021/03/04 01:16:24;;;;;;;96.00;66.90;;;7.60;1.00;;;;;;4964158;28;20240;-88
2021/03/04 01:18:51;;;;;;;92.97;68.90;;;7.60;1.00;;;;;;4970027;28;20232;-86
2021/03/04 01:21:17;;;;;;;91.20;68.05;;;7.50;1.00;;;;;;4963216;28;20220;-90
2021/03/04 01:23:44;;;;;;;92.38;70.82;;;7.50;1.00;;;;;;4969188;28;20224;-85
2021/03/04 01:26:12;;;;;;;96.35;68.20;;;7.50;1.00;;;;;;4950430;28;21174;-88
2021/03/04 01:28:38;;;;;;;87.32;65.43;;;7.50;1.00;;;;;;4939532;28;20232;-85
2021/03/04 01:31:05;;;;;;;88.10;64.60;;;7.50;1.00;;;;;;4953328;28;20233;-85
2021/03/04 01:33:31;;;;;;;89.20;63.95;;;7.50;1.00;;;;;;4946341;28;20240;-85
2021/03/04 01:35:58;;;;;;;91.90;62.65;;;7.40;1.00;;;;;;4965634;28;20229;-87
2021/03/04 01:38:24;;;;;;;88.50;64.15;;;7.40;1.00;;;;;;4944345;28;20234;-85
2021/03/04 01:40:52;;;;;;;91.40;64.60;;;7.40;1.00;;;;;;4950300;28;20332;-86
2021/03/04 01:43:18;;;;;;;85.63;63.38;;;7.30;1.00;;;;;;4960056;28;20224;-86
2021/03/04 01:45:44;;;;;;;82.85;62.65;;;7.20;1.00;;;;;;4947745;28;21049;-85
2021/03/04 01:48:11;;;;;;;93.45;66.78;;;7.20;1.00;;;;;;4960759;28;20312;-86
2021/03/04 01:50:39;;;;;;;84.40;62.65;;;7.20;1.00;;;;;;4958316;28;20236;-85
2021/03/04 01:53:05;;;;;;;83.18;62.60;;;7.20;1.00;;;;;;4966060;28;21212;-86
2021/03/04 01:55:32;;;;;;;90.18;66.63;;;7.10;1.00;;;;;;4966582;28;20223;-87
2021/03/04 01:57:59;;;;;;;90.95;64.30;;;7.10;1.00;;;;;;4960017;28;21812;-86
2021/03/04 02:00:25;;;;;;;97.57;67.95;;;7.10;1.00;;;;;;4970567;28;20328;-85
2021/03/04 02:02:52;;;;;;;87.93;65.63;;;7.00;1.00;;;;;;4969019;28;20239;-89
2021/03/04 02:05:19;;;;;;;95.68;66.10;;;7.00;1.00;;;;;;4971989;28;20243;-84
2021/03/04 02:07:58;;;;;;;92.68;68.68;;;7.00;1.00;;;;;;4985374;28;20258;-87
2021/03/04 02:10:33;;;;;;;93.70;71.65;;;7.00;1.00;;;;;;4965555;28;20243;-88
2021/03/04 02:13:14;;;;;;;88.47;67.63;;;6.90;1.00;;;;;;4949085;28;20263;-86
2021/03/04 02:15:50;;;;;;;96.82;69.85;;;6.80;1.00;;;;;;4946215;28;20287;-86
2021/03/04 02:18:20;;;;;;;95.18;71.72;;;6.80;1.00;;;;;;4976054;28;20228;-86
2021/03/04 02:20:59;;;;;;;92.32;67.97;;;6.80;1.00;;;;;;4942100;28;20769;-88
2021/03/04 02:23:46;;;;;;;104.50;73.20;;;6.70;1.00;;;;;;4969123;28;20262;-86
2021/03/04 02:26:26;;;;;;;101.60;71.35;;;6.70;1.00;;;;;;4967057;28;20217;-86
2021/03/04 02:28:57;;;;;;;102.47;73.38;;;6.70;1.00;;;;;;4965096;28;20874;-87
2021/03/04 02:31:25;;;;;;;109.18;77.57;;;6.70;1.00;;;;;;4969471;28;20247;-85
2021/03/04 02:33:52;;;;;;;104.43;73.93;;;6.70;1.00;;;;;;4965086;28;20237;-88
2021/03/04 02:36:20;;;;;;;112.20;77.85;;;6.60;1.00;;;;;;4962410;28;20240;-86
2021/03/04 02:38:48;;;;;;;100.80;72.45;;;6.60;1.00;;;;;;4962150;28;20232;-89
2021/03/04 02:41:15;;;;;;;106.63;73.93;;;6.60;1.00;;;;;;4961287;28;20228;-87
2021/03/04 02:43:42;;;;;;;103.10;76.07;;;6.60;1.00;;;;;;4967552;28;20228;-86
2021/03/04 02:46:11;;;;;;;106.05;78.00;;;6.60;1.00;;;;;;4960573;28;21514;-85
2021/03/04 02:48:38;;;;;;;105.82;77.50;;;6.50;1.00;;;;;;4972152;28;20225;-86
2021/03/04 02:51:06;;;;;;;101.22;74.65;;;6.50;1.00;;;;;;4965751;28;20232;-87
2021/03/04 02:53:34;;;;;;;109.40;80.10;;;6.60;1.00;;;;;;4974837;28;20232;-91
2021/03/04 02:56:02;;;;;;;105.10;79.00;;;6.60;1.00;;;;;;4961285;28;20233;-91
2021/03/04 02:58:30;;;;;;;108.30;79.50;;;6.70;1.00;;;;;;4990015;28;20215;-91
2021/03/04 03:00:58;;;;;;;106.43;76.80;;;6.70;1.00;;;;;;4980721;28;20355;-90
2021/03/04 03:03:27;;;;;;;110.18;77.32;;;6.70;1.00;;;;;;4964995;28;20232;-86
2021/03/04 03:05:54;;;;;;;105.43;79.15;;;6.70;1.00;;;;;;4948326;28;20232;-86
2021/03/04 03:08:21;;;;;;;112.60;82.78;;;6.70;1.00;;;;;;4944885;28;20228;-87
2021/03/04 03:10:50;;;;;;;114.43;82.68;;;6.70;1.00;;;;;;4966412;28;20333;-86
2021/03/04 03:13:19;;;;;;;116.55;79.80;;;6.70;1.00;;;;;;4949830;28;20229;-85
2021/03/04 03:15:45;;;;;;;116.95;84.28;;;6.70;1.00;;;;;;4965682;28;20235;-86
2021/03/04 03:18:12;;;;;;;114.32;81.90;;;6.80;1.00;;;;;;4954917;28;20225;-87
2021/03/04 03:20:39;;;;;;;112.10;79.18;;;6.70;1.00;;;;;;4969839;28;20235;-85
2021/03/04 03:23:06;;;;;;;110.47;81.75;;;6.80;1.00;;;;;;4966560;28;20236;-90
2021/03/04 03:25:32;;;;;;;116.45;79.97;;;6.70;1.00;;;;;;4970795;28;20224;-90
2021/03/04 03:27:59;;;;;;;116.75;82.60;;;6.70;1.00;;;;;;4970598;28;21026;-85
2021/03/04 03:30:28;;;;;;;108.72;77.20;;;6.60;1.00;;;;;;4962855;28;20229;-85
2021/03/04 03:32:58;;;;;;;105.70;76.68;;;6.50;1.00;;;;;;4962205;28;20290;-85
2021/03/04 03:35:26;;;;;;;103.55;73.22;;;6.60;1.00;;;;;;4964924;28;20244;-85
2021/03/04 03:37:57;;;;;;;106.05;73.50;;;6.50;1.00;;;;;;4942483;28;20288;-84
2021/03/04 03:40:32;;;;;;;105.90;75.82;;;6.40;1.00;;;;;;4961547;28;20259;-85
2021/03/04 03:43:01;;;;;;;98.50;63.22;;;6.40;1.00;;;;;;4945422;28;20233;-89
2021/03/04 03:45:30;;;;;;;97.18;62.33;;;6.30;1.00;;;;;;4952041;28;20244;-86
2021/03/04 03:47:58;;;;;;;95.43;66.20;;;6.30;1.00;;;;;;4963601;28;20719;-85
2021/03/04 03:50:26;;;;;;;99.07;67.10;;;6.20;1.00;;;;;;4972929;28;20263;-84
2021/03/04 03:52:56;;;;;;;98.45;68.05;;;6.20;1.00;;;;;;4971234;28;20221;-85
2021/03/04 03:55:23;;;;;;;105.43;68.03;;;6.20;1.00;;;;;;4972146;28;20251;-85
2021/03/04 03:57:54;;;;;;;91.22;67.22;;;6.20;1.00;;;;;;4953246;28;20770;-88
2021/03/04 04:00:24;;;;;;;86.18;61.25;;;6.30;1.00;;;;;;4976490;28;20239;-88
2021/03/04 04:02:56;;;;;;;95.22;64.55;;;6.20;1.00;;;;;;4956913;28;20251;-85
2021/03/04 04:05:23;;;;;;;91.75;64.18;;;6.20;1.00;;;;;;4957704;28;20229;-86
2021/03/04 04:07:52;;;;;;;87.72;61.72;;;6.20;1.00;;;;;;4970825;28;20231;-86
2021/03/04 04:10:21;;;;;;;85.05;57.88;;;6.20;1.00;;;;;;4953175;28;20229;-87
2021/03/04 04:12:48;;;;;;;83.82;55.60;;;6.10;1.00;;;;;;4950832;28;20243;-86
2021/03/04 04:15:15;;;;;;;82.03;56.90;;;6.10;1.00;;;;;;4973096;28;20244;-85
2021/03/04 04:17:42;;;;;;;82.18;56.83;;;6.00;1.00;;;;;;4958600;28;20240;-86
2021/03/04 04:20:10;;;;;;;74.05;53.35;;;6.00;1.00;;;;;;4973337;28;20240;-87
2021/03/04 04:22:37;;;;;;;69.45;50.97;;;5.90;1.00;;;;;;4963257;28;20779;-84
2021/03/04 04:25:05;;;;;;;83.47;54.85;;;5.80;1.00;;;;;;4962377;28;20742;-84
2021/03/04 04:27:33;;;;;;;88.28;56.78;;;5.70;1.00;;;;;;4964021;28;20668;-87
2021/03/04 04:30:13;;;;;;;77.68;56.47;;;5.70;1.00;;;;;;4970935;28;20723;-85
2021/03/04 04:32:39;;;;;;;86.65;58.38;;;5.70;1.00;;;;;;4973978;28;20260;-86
2021/03/04 04:35:07;;;;;;;81.25;54.53;;;5.70;1.00;;;;;;4965765;28;20330;-92
2021/03/04 04:37:34;;;;;;;83.10;54.92;;;5.70;1.00;;;;;;4990391;28;20220;-89
2021/03/04 04:40:00;;;;;;;86.07;55.75;;;5.70;1.00;;;;;;4968217;28;20224;-91
2021/03/04 04:42:27;;;;;;;84.60;58.53;;;5.70;1.00;;;;;;4977176;28;20228;-91
2021/03/04 04:44:55;;;;;;;75.95;54.22;;;5.70;1.00;;;;;;4951440;28;20237;-85
2021/03/04 04:47:21;;;;;;;83.40;55.15;;;5.70;1.00;;;;;;4955847;28;20964;-86
2021/03/04 04:52:31;;;;;;;81.70;54.95;;;5.60;1.00;;;;;;4956756;28;20334;-85
2021/03/04 04:54:58;;;;;;;84.28;55.13;;;5.60;1.00;;;;;;4962719;28;20742;-88
2021/03/04 04:57:25;;;;;;;80.82;52.70;;;5.70;1.00;;;;;;4973130;28;20224;-86
2021/03/04 04:59:51;;;;;;;70.95;48.28;;;5.70;1.00;;;;;;4963400;28;20328;-83
2021/03/04 05:02:20;;;;;;;81.28;53.65;;;5.70;1.00;;;;;;4971915;28;20303;-86
2021/03/04 05:04:46;;;;;;;74.20;48.00;;;5.70;1.00;;;;;;4973020;28;20316;-83
2021/03/04 05:07:13;;;;;;;70.47;45.13;;;5.60;1.00;;;;;;4953838;28;20271;-85
2021/03/04 05:09:39;;;;;;;68.32;46.08;;;5.60;1.00;;;;;;4952538;28;20229;-87
2021/03/04 05:12:07;;;;;;;70.07;45.00;;;5.60;1.00;;;;;;4967266;28;20229;-84
2021/03/04 05:14:33;;;;;;;66.25;47.65;;;5.60;1.00;;;;;;4957681;28;20259;-83
2021/03/04 05:17:01;;;;;;;67.80;44.65;;;5.60;1.00;;;;;;4956118;28;20323;-87
2021/03/04 05:19:29;;;;;;;72.65;43.40;;;5.60;1.00;;;;;;4965379;28;20228;-92
2021/03/04 05:21:55;;;;;;;67.68;42.05;;;5.60;1.00;;;;;;4971914;28;20275;-92
2021/03/04 05:24:22;;;;;;;62.10;41.15;;;5.60;1.00;;;;;;4981804;28;20217;-84
2021/03/04 05:26:49;;;;;;;62.97;41.55;;;5.50;1.00;;;;;;4954355;28;20228;-85
2021/03/04 05:29:15;;;;;;;73.55;43.47;;;5.50;1.00;;;;;;4956049;28;20734;-84
2021/03/04 05:31:42;;;;;;;66.93;42.70;;;5.40;1.00;;;;;;4951140;28;20225;-84
2021/03/04 05:34:10;;;;;;;67.75;43.78;;;5.40;1.00;;;;;;4978370;28;20481;-92
2021/03/04 05:36:41;;;;;;;66.63;43.88;;;5.40;1.00;;;;;;4970473;28;20221;-84
2021/03/04 05:39:07;;;;;;;70.75;43.22;;;5.40;1.00;;;;;;4973045;28;20263;-85
2021/03/04 05:41:35;;;;;;;78.88;45.05;;;5.40;1.00;;;;;;4954593;28;20283;-85
2021/03/04 05:44:04;;;;;;;71.13;43.15;;;5.40;1.00;;;;;;4952096;28;20229;-87
2021/03/04 05:46:34;;;;;;;65.25;41.17;;;5.40;1.00;;;;;;4947435;28;20347;-88
2021/03/04 05:49:02;;;;;;;69.40;39.42;;;5.40;1.00;;;;;;4969382;28;20237;-89
2021/03/04 05:51:34;;;;;;;68.32;37.80;;;5.40;1.00;;;;;;4957015;28;20228;-87
2021/03/04 05:54:07;;;;;;;67.15;40.75;;;5.40;1.00;;;;;;4975219;28;20232;-88
2021/03/04 05:56:35;;;;;;;90.45;49.20;;;5.30;1.00;;;;;;4977742;28;20315;-86
2021/03/04 05:59:03;;;;;;;96.15;53.05;;;5.30;1.00;;;;;;4971097;28;20355;-85
2021/03/04 06:01:31;;;;;;;89.07;51.05;;;5.30;1.00;;;;;;4956816;28;20292;-87
2021/03/04 06:03:59;;;;;;;90.88;48.00;;;5.30;1.00;;;;;;4957951;28;20237;-85
2021/03/04 06:06:25;;;;;;;79.68;46.33;;;5.20;1.00;;;;;;4972088;28;20232;-86
2021/03/04 06:09:01;;;;;;;83.72;47.70;;;5.10;1.00;;;;;;4949918;28;20228;-85
2021/03/04 06:11:30;;;;;;;78.03;46.30;;;5.10;1.00;;;;;;4961159;28;20612;-86
2021/03/04 06:13:58;;;;;;;70.38;41.42;;;5.00;1.00;;;;;;4952915;28;20275;-83
2021/03/04 06:16:25;;;;;;;64.32;39.38;;;5.00;1.00;;;;;;4966009;28;20244;-84
2021/03/04 06:18:52;;;;;;;61.70;38.05;;;5.00;1.00;;;;;;4972845;28;20235;-85
2021/03/04 06:21:21;;;;;;;73.65;41.33;;;4.90;1.00;;;;;;4961101;28;20239;-84
2021/03/04 06:23:48;;;;;;;60.80;38.83;;;4.90;1.00;;;;;;4953050;28;20224;-85
2021/03/04 06:26:36;;;;;;;69.07;38.90;;;4.90;1.00;;;;;;4954265;28;20248;-86
2021/03/04 06:29:21;;;;;;;64.72;37.63;;;4.90;1.00;;;;;;4959869;28;20220;-83
2021/03/04 06:32:00;;;;;;;62.05;39.75;;;4.90;1.00;;;;;;4953585;28;20327;-75
2021/03/04 06:34:26;;;;;;;67.93;39.53;;;4.90;1.00;;;;;;4958743;28;20240;-80
2021/03/04 06:36:54;;;;;;;64.40;38.90;;;4.90;1.00;;;;;;4975165;28;21135;-81
2021/03/04 06:39:21;;;;;;;72.72;40.67;;;4.90;1.00;;;;;;4963455;28;21517;-81
2021/03/04 06:42:00;;;;;;;70.35;37.50;;;5.00;1.00;;;;;;4976058;28;20314;-80
2021/03/04 06:44:27;;;;;;;66.75;39.55;;;5.00;1.00;;;;;;4973025;28;20305;-89
2021/03/04 06:47:20;;;;;;;;;;;;;;;;;;;;;
2021/03/04 06:49:46;;;;;;;70.35;39.75;;;5.10;1.00;;;;;;4963782;28;20405;-84
2021/03/04 06:52:24;;;;;;;66.50;38.70;;;5.10;1.00;;;;;;4985555;28;20228;-83
2021/03/04 06:54:50;;;;;;;71.28;40.15;;;5.20;1.00;;;;;;4978632;28;20228;-82
2021/03/04 06:57:18;;;;;;;64.18;39.28;;;5.20;1.00;;;;;;4984538;28;20248;-82
2021/03/04 06:59:46;;;;;;;66.72;38.92;;;5.20;1.00;;;;;;4977532;28;20300;-83
2021/03/04 07:02:24;;;;;;;67.30;44.80;;;5.20;1.00;;;;;;4977182;28;20449;-83
2021/03/04 07:04:54;;;;;;;69.05;40.50;;;5.20;1.00;;;;;;4975211;28;20339;-83
2021/03/04 07:07:25;;;;;;;65.10;45.25;;;5.30;1.00;;;;;;4982763;28;20857;-81
2021/03/04 07:09:56;;;;;;;73.75;39.70;;;5.30;1.00;;;;;;4957048;28;20299;-83
2021/03/04 07:12:27;;;;;;;64.75;38.60;;;5.40;1.00;;;;;;4980740;28;20228;-83
2021/03/04 07:14:54;;;;;;;58.10;35.45;;;5.40;1.00;;;;;;4977225;28;20224;-82
2021/03/04 07:17:23;;;;;;;64.38;37.63;;;5.40;1.00;;;;;;4968955;28;20243;-83
2021/03/04 07:19:52;;;;;;;67.30;39.28;;;5.40;1.00;;;;;;4970041;28;20286;-83
2021/03/04 07:22:20;;;;;;;67.40;37.05;;;5.50;1.00;;;;;;4941881;28;20328;-84
2021/03/04 07:24:47;;;;;;;63.90;37.97;;;5.40;1.00;;;;;;4955891;28;20237;-84
2021/03/04 07:27:15;;;;;;;61.45;36.22;;;5.40;1.00;;;;;;4964413;28;20231;-84
2021/03/04 07:29:43;;;;;;;65.95;37.38;;;5.40;1.00;;;;;;4970245;28;20224;-84
2021/03/04 07:32:11;;;;;;;62.30;35.53;;;5.40;1.00;;;;;;4956512;28;20267;-84
2021/03/04 07:34:40;;;;;;;60.60;36.22;;;5.30;1.00;;;;;;4971404;28;20259;-84
2021/03/04 07:37:17;;;;;;;55.05;34.83;;;5.30;1.00;;;;;;4977940;28;20225;-85
2021/03/04 07:39:58;;;;;;;60.53;38.17;;;5.40;1.00;;;;;;4976125;28;20328;-82
2021/03/04 07:42:25;;;;;;;66.07;37.53;;;5.40;1.00;;;;;;4970998;28;20224;-84
2021/03/04 07:44:55;;;;;;;66.13;39.47;;;5.40;1.00;;;;;;4971995;28;20221;-85
2021/03/04 07:47:27;;;;;;;58.65;36.63;;;5.40;1.00;;;;;;4952447;28;20236;-84
2021/03/04 07:49:53;;;;;;;61.60;36.72;;;5.40;1.00;;;;;;4958528;28;20232;-83
2021/03/04 07:52:27;;;;;;;70.32;38.92;;;5.40;1.00;;;;;;4966060;28;20348;-85
2021/03/04 07:54:56;;;;;;;76.53;47.22;;;5.30;1.00;;;;;;4976658;28;20524;-82
2021/03/04 07:57:24;;;;;;;71.88;42.42;;;5.30;1.00;;;;;;4964155;28;21286;-83
2021/03/04 07:59:54;;;;;;;59.35;36.85;;;5.30;1.00;;;;;;4962857;28;20344;-83
2021/03/04 08:02:28;;;;;;;58.53;36.22;;;5.30;1.00;;;;;;4972054;28;20502;-85
2021/03/04 08:05:06;;;;;;;73.30;45.80;;;5.40;1.00;;;;;;4983504;28;21079;-83
2021/03/04 08:07:32;;;;;;;60.85;34.22;;;5.40;1.00;;;;;;4962034;28;20234;-81
2021/03/04 08:10:10;;;;;;;61.80;36.63;;;5.30;1.00;;;;;;4979830;28;21087;-84
2021/03/04 08:13:00;;;;;;;57.35;33.58;;;5.40;1.00;;;;;;4967650;28;20231;-83
2021/03/04 08:15:33;;;;;;;53.00;32.17;;;5.30;1.00;;;;;;4973908;28;20232;-85
2021/03/04 08:18:04;;;;;;;56.25;33.33;;;5.30;1.00;;;;;;4975980;28;20217;-87
2021/03/04 08:20:31;;;;;;;56.20;29.80;;;5.40;1.00;;;;;;4994624;23;20237;-83
2021/03/04 08:23:15;;;;;;;47.15;30.42;;;5.40;1.00;;;;;;4942302;28;20442;-83
2021/03/04 08:25:49;;;;;;;45.28;28.23;;;5.40;1.00;;;;;;4956971;28;20228;-84
2021/03/04 08:28:26;;;;;;;49.30;30.30;;;5.40;1.00;;;;;;4949538;28;20256;-85
2021/03/04 08:30:56;;;;;;;47.38;30.45;;;5.50;1.00;;;;;;4974764;28;20292;-85
2021/03/04 08:33:23;;;;;;;47.17;27.75;;;5.50;1.00;;;;;;4966571;28;20267;-85
2021/03/04 08:35:59;;;;;;;45.40;26.75;;;5.50;1.00;;;;;;4956144;28;20267;-82
2021/03/04 08:39:29;;;;;;;56.83;33.22;;;5.50;1.00;;;;;;4888075;29;20380;-83
2021/03/04 08:42:05;;;;;;;54.83;32.28;;;5.40;1.00;;;;;;4887613;29;20236;-85
2021/03/04 08:44:37;;;;;;;50.25;30.23;;;5.30;1.00;;;;;;4885728;29;20223;-87
2021/03/04 08:47:06;;;;;;;55.72;31.20;;;5.30;1.00;;;;;;4960443;28;20224;-85
2021/03/04 08:49:33;;;;;;;49.50;31.02;;;5.30;1.00;;;;;;4968616;28;20300;-85
2021/03/04 08:52:00;;;;;;;54.75;30.67;;;5.30;1.00;;;;;;4969345;28;20225;-84
2021/03/04 08:54:28;;;;;;;49.58;30.00;;;5.30;1.00;;;;;;4968115;28;20259;-87
2021/03/04 08:56:57;;;;;;;51.75;29.85;;;5.20;1.00;;;;;;4970241;28;20260;-84
2021/03/04 08:59:25;;;;;;;55.33;31.95;;;5.20;1.00;;;;;;4951458;28;20288;-83
2021/03/04 09:01:54;;;;;;;49.40;28.38;;;5.20;1.00;;;;;;4980775;28;20239;-87
2021/03/04 09:04:24;;;;;;;49.90;28.55;;;5.30;1.00;;;;;;4957043;28;20267;-86
2021/03/04 09:06:51;;;;;;;47.50;27.40;;;5.30;1.00;;;;;;4962838;28;20304;-84
2021/03/04 09:09:22;;;;;;;44.70;26.98;;;5.40;1.00;;;;;;4970198;28;22965;-81
2021/03/04 09:11:49;;;;;;;43.28;26.25;;;5.40;1.00;;;;;;4966639;28;20228;-80
2021/03/04 09:14:16;;;;;;;43.38;26.55;;;5.30;1.00;;;;;;4969014;28;20240;-82
2021/03/04 09:16:49;;;;;;;43.75;24.55;;;5.30;1.00;;;;;;4969197;28;20434;-81
2021/03/04 09:19:27;;;;;;;36.80;22.55;;;5.40;1.00;;;;;;4977996;28;20224;-84
2021/03/04 09:21:55;;;;;;;40.00;23.65;;;5.30;1.00;;;;;;4967246;28;20971;-83
2021/03/04 09:24:22;;;;;;;42.30;24.33;;;5.30;1.00;;;;;;4977778;28;20323;-83
2021/03/04 09:26:49;;;;;;;36.88;22.38;;;5.30;1.00;;;;;;4960782;28;20229;-83
2021/03/04 09:29:16;;;;;;;40.28;25.45;;;5.40;1.00;;;;;;4970816;28;20236;-82
2021/03/04 09:31:51;;;;;;;37.72;25.55;;;5.40;1.00;;;;;;4947810;28;20283;-84
2021/03/04 09:34:18;;;;;;;40.20;26.70;;;5.40;1.00;;;;;;4971962;28;20227;-83
2021/03/04 09:36:45;;;;;;;42.65;26.27;;;5.40;1.00;;;;;;4971301;28;20235;-83
2021/03/04 09:39:14;;;;;;;37.95;23.90;;;5.40;1.00;;;;;;4962260;28;20271;-81
2021/03/04 09:41:40;;;;;;;35.15;24.05;;;5.40;1.00;;;;;;4946997;28;20339;-83
2021/03/04 09:44:07;;;;;;;37.30;23.45;;;5.40;1.00;;;;;;4954944;28;20228;-82
2021/03/04 09:46:35;;;;;;;37.88;23.25;;;5.40;1.00;;;;;;4970749;28;20296;-80
2021/03/04 09:49:15;;;;;;;37.42;25.05;;;5.40;1.00;;;;;;4982381;28;20248;-84
2021/03/04 09:51:42;;;;;;;37.42;25.25;;;5.40;1.00;;;;;;4958461;28;20239;-82
2021/03/04 09:54:11;;;;;;;37.05;23.10;;;5.50;1.00;;;;;;4965987;28;20252;-81
2021/03/04 09:56:37;;;;;;;40.30;26.80;;;5.60;1.00;;;;;;4952878;28;20216;-83
2021/03/04 09:59:04;;;;;;;34.97;21.98;;;5.60;1.00;;;;;;4970787;28;20244;-85
2021/03/04 10:01:32;;;;;;;35.25;23.10;;;5.60;1.00;;;;;;4967052;28;20239;-84
2021/03/04 10:04:03;;;;;;;35.22;22.52;;;5.60;1.00;;;;;;4978035;28;20227;-85
2021/03/04 10:06:54;;;;;;;37.75;23.52;;;5.50;1.00;;;;;;4974993;28;20231;-84
2021/03/04 10:09:28;;;;;;;39.00;26.95;;;5.50;1.00;;;;;;4941887;28;20539;-84
2021/03/04 10:12:04;;;;;;;40.95;27.27;;;5.40;1.00;;;;;;4961698;28;20232;-85
2021/03/04 10:14:42;;;;;;;44.47;24.60;;;5.40;1.00;;;;;;4952358;28;20305;-82
2021/03/04 10:17:09;;;;;;;39.15;24.40;;;5.50;1.00;;;;;;4963057;28;20229;-83
2021/03/04 10:19:36;;;;;;;39.17;24.20;;;5.50;1.00;;;;;;4974305;28;20248;-83
2021/03/04 10:22:03;;;;;;;37.08;22.42;;;5.40;1.00;;;;;;4971226;28;20255;-83
2021/03/04 10:24:31;;;;;;;41.50;23.70;;;5.40;1.00;;;;;;4967934;28;20334;-84
2021/03/04 10:26:59;;;;;;;37.13;21.42;;;5.40;1.00;;;;;;4971410;28;20228;-81
2021/03/04 10:29:26;;;;;;;37.50;23.75;;;5.40;1.00;;;;;;4946116;28;20225;-82
2021/03/04 10:31:52;;;;;;;42.60;26.02;;;5.30;1.00;;;;;;4971184;28;20299;-82
2021/03/04 10:34:19;;;;;;;38.60;23.58;;;5.40;1.00;;;;;;4960499;28;20292;-84
2021/03/04 10:36:45;;;;;;;44.70;24.95;;;5.40;1.00;;;;;;4974442;28;20236;-83
2021/03/04 10:39:13;;;;;;;39.50;26.90;;;5.40;1.00;;;;;;4967460;28;20236;-84
2021/03/04 10:41:41;;;;;;;43.65;27.15;;;5.40;1.00;;;;;;4981911;28;20287;-82
2021/03/04 10:44:32;;;;;;;46.53;26.85;;;5.40;1.00;;;;;;4973155;28;20225;-82
2021/03/04 10:47:08;;;;;;;46.47;29.85;;;5.40;1.00;;;;;;4974033;28;20224;-80
2021/03/04 10:53:00;;;;;;;48.47;27.33;;;5.50;1.00;;;;;;4966105;28;20224;-88
2021/03/04 10:58:40;;;;;;;41.90;25.92;;;5.50;1.00;;;;;;4966129;28;20209;-84
2021/03/04 11:01:07;;;;;;;39.03;25.65;;;5.50;1.00;;;;;;4962822;28;20223;-82
2021/03/04 11:03:33;;;;;;;40.15;25.00;;;5.50;1.00;;;;;;4979368;28;20224;-82
2021/03/04 11:06:04;;;;;;;32.42;22.52;;;5.60;1.00;;;;;;4954019;28;20213;-85
2021/03/04 11:11:31;;;;;;;37.30;23.20;;;5.70;1.00;;;;;;4982801;28;20255;-80
2021/03/04 11:13:59;;;;;;;44.40;24.48;;;5.80;1.00;;;;;;4982531;28;20228;-78
2021/03/04 11:16:26;;;;;;;45.53;23.60;;;5.80;1.00;;;;;;4945787;28;20257;-79
2021/03/04 11:18:52;;;;;;;35.55;24.08;;;5.80;1.00;;;;;;4979383;28;20243;-77
2021/03/04 11:21:18;;;;;;;33.08;21.40;;;5.70;1.00;;;;;;4970004;28;20228;-79
2021/03/04 11:23:45;;;;;;;31.77;22.48;;;5.70;1.00;;;;;;4978887;28;20235;-81
2021/03/04 11:26:13;;;;;;;34.28;22.52;;;5.60;1.00;;;;;;4965164;28;20279;-79
2021/03/04 11:28:39;;;;;;;34.22;21.08;;;5.50;1.00;;;;;;4954711;28;20247;-80
2021/03/04 11:31:06;;;;;;;29.80;19.83;;;5.50;1.00;;;;;;4951419;28;20235;-79
2021/03/04 11:33:32;;;;;;;28.42;20.13;;;5.50;1.00;;;;;;4975605;28;20271;-80
2021/03/04 11:35:59;;;;;;;30.52;21.10;;;5.50;1.00;;;;;;4967590;28;20807;-79
2021/03/04 11:38:25;;;;;;;29.08;19.85;;;5.50;1.00;;;;;;4970620;28;20226;-79
2021/03/04 11:40:51;;;;;;;31.95;18.77;;;5.40;1.00;;;;;;4960929;28;20841;-81
2021/03/04 11:43:17;;;;;;;23.60;15.43;;;5.40;1.00;;;;;;4973185;28;20343;-78
2021/03/04 11:45:43;;;;;;;24.63;15.40;;;5.40;1.00;;;;;;4960710;28;20268;-79
2021/03/04 11:48:11;;;;;;;21.27;16.10;;;5.40;1.00;;;;;;4951884;28;20239;-78
2021/03/04 11:50:37;;;;;;;24.77;14.50;;;5.40;1.00;;;;;;4958710;28;20231;-79
2021/03/04 11:53:05;;;;;;;19.63;14.23;;;5.40;1.00;;;;;;4961505;28;20232;-78
2021/03/04 11:55:32;;;;;;;19.58;14.10;;;5.50;1.00;;;;;;4974213;28;20613;-80
2021/03/04 11:57:59;;;;;;;21.63;14.70;;;5.40;1.00;;;;;;4958704;28;20224;-78
2021/03/04 12:00:25;;;;;;;23.85;16.23;;;5.40;1.00;;;;;;4963965;28;20240;-79
2021/03/04 12:02:51;;;;;;;22.55;14.95;;;5.40;1.00;;;;;;4956557;28;20229;-78
2021/03/04 12:05:18;;;;;;;26.00;14.65;;;5.30;1.00;;;;;;4970298;28;20290;-80
2021/03/04 12:07:45;;;;;;;23.35;17.27;;;5.30;1.00;;;;;;4956737;28;20228;-78
2021/03/04 12:10:12;;;;;;;22.65;14.02;;;5.30;1.00;;;;;;4966405;28;20364;-78
2021/03/04 12:12:39;;;;;;;27.48;16.92;;;5.30;1.00;;;;;;4963507;28;20236;-79
2021/03/04 12:15:07;;;;;;;22.25;16.40;;;5.30;1.00;;;;;;4964143;28;20240;-86
2021/03/04 12:17:34;;;;;;;22.92;16.45;;;5.30;1.00;;;;;;4970644;28;20229;-82
2021/03/04 12:20:01;;;;;;;21.45;16.10;;;5.40;1.00;;;;;;4974807;28;20403;-84
2021/03/04 12:22:29;;;;;;;21.02;16.48;;;5.30;1.00;;;;;;4972133;28;20347;-84
2021/03/04 12:24:56;;;;;;;24.58;18.13;;;5.20;1.00;;;;;;4982363;28;20228;-83
2021/03/04 12:30:05;;;;;;;29.98;18.25;;;5.20;1.00;;;;;;4977014;28;20243;-85
2021/03/04 12:32:34;;;;;;;18.38;13.60;;;5.20;1.00;;;;;;4960018;28;20231;-86
2021/03/04 12:35:01;;;;;;;22.92;15.50;;;5.30;1.00;;;;;;4977357;28;20232;-86
2021/03/04 12:37:28;;;;;;;17.85;13.40;;;5.30;1.00;;;;;;4981589;28;20221;-84
2021/03/04 12:39:55;;;;;;;22.25;14.93;;;5.40;1.00;;;;;;4957243;28;20344;-84
2021/03/04 12:42:21;;;;;;;15.95;13.10;;;5.40;1.00;;;;;;4976751;28;20244;-86
2021/03/04 12:44:48;;;;;;;21.55;14.93;;;5.40;1.00;;;;;;4961009;28;20228;-84
2021/03/04 12:47:15;;;;;;;18.90;13.18;;;5.50;1.00;;;;;;4970518;28;20243;-84
2021/03/04 12:49:44;;;;;;;22.52;13.80;;;5.50;1.00;;;;;;4964596;28;20235;-82
2021/03/04 12:52:10;;;;;;;15.15;11.38;;;5.50;1.00;;;;;;4967146;28;20217;-83
2021/03/04 12:54:38;;;;;;;15.43;10.73;;;5.40;1.00;;;;;;4951824;28;20229;-85
2021/03/04 12:57:05;;;;;;;19.08;12.32;;;5.40;1.00;;;;;;4976893;28;20231;-83
2021/03/04 12:59:31;;;;;;;12.82;10.30;;;5.40;1.00;;;;;;4967215;28;20700;-84
2021/03/04 13:01:58;;;;;;;15.02;10.68;;;5.40;1.00;;;;;;4975777;28;20347;-86
2021/03/04 13:04:24;;;;;;;13.63;10.18;;;5.50;1.00;;;;;;4983885;28;20235;-84
2021/03/04 13:06:51;;;;;;;16.10;11.27;;;5.50;1.00;;;;;;4977394;28;20233;-84
2021/03/04 13:09:18;;;;;;;18.60;10.45;;;5.50;1.00;;;;;;4968530;28;21070;-84
2021/03/04 13:11:47;;;;;;;11.65;9.45;;;5.40;1.00;;;;;;4957262;28;20232;-85